Time;durP1;ratioP1;P1;durP2;ratioP2;P2;SDS_P1;SDS_P2;PMS_P1;PMS_P2;Temp;Humidity;BMP_temperature;BMP_pressure;BME280_temperature;BME280_humidity;BME280_pressure;Samples;Min_cycle;Max_cycle;Signal;HPM_P1;HPM_P2
2024/03/26 00:02:12;;;;;;;1.83;1.73;;;;;;;19.69;48.02;95843.50;4996163;28;20301;-24
2024/03/26 00:04:38;;;;;;;2.17;1.97;;;;;;;19.69;48.12;95836.69;4988955;28;20214;-24
2024/03/26 00:07:03;;;;;;;3.00;2.10;;;;;;;19.69;47.86;95833.31;4997075;28;20301;-25
2024/03/26 00:09:29;;;;;;;2.23;1.90;;;;;;;19.69;47.95;95831.59;4991716;28;20212;-25
2024/03/26 00:11:55;;;;;;;1.97;1.87;;;;;;;19.69;47.92;95834.16;4988681;28;20210;-24
2024/03/26 00:14:21;;;;;;;3.17;2.20;;;;;;;19.69;47.97;95829.06;4992222;28;20260;-24
2024/03/26 00:16:46;;;;;;;1.80;1.70;;;;;;;19.71;47.81;95829.06;4979725;28;20232;-24
2024/03/26 00:19:12;;;;;;;2.10;1.90;;;;;;;19.70;47.94;95828.25;4992935;28;20596;-25
2024/03/26 00:21:37;;;;;;;2.20;1.90;;;;;;;19.71;47.90;95826.53;4995486;28;20297;-24
2024/03/26 00:24:04;;;;;;;2.07;1.93;;;;;;;19.70;47.90;95833.34;4992665;28;20206;-25
2024/03/26 00:26:29;;;;;;;2.10;1.90;;;;;;;19.71;48.13;95822.28;4984834;28;20261;-25
2024/03/26 00:28:55;;;;;;;2.83;2.07;;;;;;;19.71;47.91;95818.88;4988923;28;20714;-24
2024/03/26 00:31:20;;;;;;;1.80;1.70;;;;;;;19.70;47.97;95817.19;4991115;28;20665;-24
2024/03/26 00:33:46;;;;;;;1.97;1.80;;;;;;;19.68;47.93;95809.53;4986647;28;20289;-24
2024/03/26 00:36:12;;;;;;;2.10;1.87;;;;;;;19.68;47.84;95799.31;4991731;28;20199;-24
2024/03/26 00:38:38;;;;;;;1.93;1.73;;;;;;;19.68;47.94;95804.44;4991150;28;20261;-25
2024/03/26 00:41:03;;;;;;;2.17;1.90;;;;;;;19.68;47.88;95806.09;4994883;28;20206;-24
2024/03/26 00:43:29;;;;;;;2.00;1.80;;;;;;;19.68;48.01;95806.97;4994633;28;20729;-26
2024/03/26 00:45:54;;;;;;;2.20;2.00;;;;;;;19.67;47.97;95795.09;4995123;28;20348;-25
2024/03/26 00:48:20;;;;;;;1.80;1.70;;;;;;;19.68;47.81;95801.00;4988806;28;20238;-25
2024/03/26 00:50:45;;;;;;;2.10;1.90;;;;;;;19.68;47.99;95793.38;4977196;28;20218;-26
2024/03/26 00:53:11;;;;;;;2.50;1.90;;;;;;;19.68;48.06;95783.16;4993783;28;20206;-24
2024/03/26 00:55:37;;;;;;;1.77;1.67;;;;;;;19.68;47.81;95783.16;4991888;28;20585;-24
2024/03/26 00:58:03;;;;;;;1.80;1.70;;;;;;;19.68;48.21;95793.38;4990532;28;20709;-25
2024/03/26 01:00:29;;;;;;;1.70;1.60;;;;;;;19.67;48.16;95776.38;4993792;28;20202;-25
2024/03/26 01:02:54;;;;;;;2.10;1.90;;;;;;;19.67;48.15;95768.75;4987183;28;20556;-25
2024/03/26 01:05:20;;;;;;;1.77;1.67;;;;;;;19.67;48.16;95773.84;4992989;28;20198;-25
2024/03/26 01:07:45;;;;;;;1.80;1.70;;;;;;;19.67;48.15;95766.19;4993622;28;20234;-24
2024/03/26 01:10:11;;;;;;;1.97;1.77;;;;;;;19.67;48.19;95774.69;4985645;28;20723;-24
2024/03/26 01:12:37;;;;;;;1.80;1.70;;;;;;;19.67;48.11;95767.06;4990941;28;20285;-25
2024/03/26 01:15:02;;;;;;;2.23;1.93;;;;;;;19.67;48.12;95761.09;4992395;28;20214;-24
2024/03/26 01:17:28;;;;;;;2.20;2.00;;;;;;;19.67;48.17;95772.16;4993765;28;20764;-25
2024/03/26 01:19:54;;;;;;;2.17;1.97;;;;;;;19.68;48.15;95761.09;4989045;28;20230;-25
2024/03/26 01:22:19;;;;;;;1.80;1.70;;;;;;;19.69;48.15;95767.06;4982050;28;20229;-24
2024/03/26 01:24:45;;;;;;;1.60;1.50;;;;;;;19.68;47.80;95765.34;4992044;28;20272;-25
2024/03/26 01:27:10;;;;;;;2.10;1.90;;;;;;;19.65;48.07;95755.97;4989108;28;20634;-25
2024/03/26 01:29:36;;;;;;;2.13;1.70;;;;;;;19.66;48.26;95756.84;5015897;28;20497;-24
2024/03/26 01:32:02;;;;;;;1.83;1.67;;;;;;;19.66;48.25;95744.09;5013199;28;20252;-25
2024/03/26 01:34:28;;;;;;;1.60;1.50;;;;;;;19.67;48.12;95748.34;4984361;28;20574;-25
2024/03/26 01:36:54;;;;;;;1.80;1.70;;;;;;;19.67;48.09;95754.31;4991479;28;20226;-24
2024/03/26 01:39:20;;;;;;;1.60;1.50;;;;;;;19.68;48.04;95757.69;4989015;28;20208;-25
2024/03/26 01:41:46;;;;;;;2.00;1.80;;;;;;;19.68;48.06;95750.03;4994145;28;20590;-24
2024/03/26 01:44:11;;;;;;;1.80;1.70;;;;;;;19.68;48.15;95747.50;4992289;28;20206;-25
2024/03/26 01:49:09;;;;;;;1.60;1.50;;;;;;;19.64;48.00;95726.25;5066631;28;20207;-26
2024/03/26 01:51:36;;;;;;;2.00;1.83;;;;;;;19.67;48.10;95733.91;5014874;28;20216;-25
2024/03/26 01:54:02;;;;;;;1.73;1.53;;;;;;;19.63;48.14;95728.78;5038102;28;20211;-25
2024/03/26 01:56:28;;;;;;;1.87;1.70;;;;;;;19.65;48.28;95727.94;5032397;28;20254;-25
2024/03/26 01:58:54;;;;;;;1.90;1.60;;;;;;;19.66;48.09;95731.38;5062783;28;20219;-32
2024/03/26 02:01:20;;;;;;;1.90;1.60;;;;;;;19.64;48.11;95722.84;5017823;28;20295;-25
2024/03/26 02:03:45;;;;;;;1.90;1.70;;;;;;;19.68;48.20;95732.22;5030873;28;20219;-26
2024/03/26 02:06:11;;;;;;;1.93;1.73;;;;;;;19.66;47.85;95727.09;5055218;28;20211;-25
2024/03/26 02:08:37;;;;;;;1.67;1.57;;;;;;;19.67;48.02;95727.97;5048991;28;20303;-26
2024/03/26 02:11:03;;;;;;;1.70;1.60;;;;;;;19.67;48.25;95727.97;5027751;28;20274;-29
2024/03/26 02:13:28;;;;;;;1.90;1.80;;;;;;;19.53;48.14;95706.59;5033157;28;20200;-25
2024/03/26 02:15:54;;;;;;;1.70;1.60;;;;;;;19.66;48.12;95727.09;5028860;28;20209;-25
2024/03/26 02:18:19;;;;;;;1.77;1.63;;;;;;;19.64;48.28;95731.34;5055641;28;20274;-25
2024/03/26 02:20:45;;;;;;;1.60;1.50;;;;;;;19.65;48.29;95730.50;5042947;28;20253;-26
2024/03/26 02:23:10;;;;;;;1.67;1.57;;;;;;;19.65;48.20;95714.34;5054136;28;20216;-25
2024/03/26 02:25:36;;;;;;;1.90;1.80;;;;;;;19.59;48.32;95711.75;5057692;28;20203;-25
2024/03/26 02:28:02;;;;;;;1.67;1.57;;;;;;;19.64;48.04;95727.94;5053229;28;20224;-25
2024/03/26 02:30:29;;;;;;;1.60;1.50;;;;;;;19.62;48.04;95720.28;5056922;28;20282;-26
2024/03/26 02:32:54;;;;;;;1.80;1.70;;;;;;;19.65;48.00;95727.94;5052880;28;20204;-36
2024/03/26 02:35:20;;;;;;;2.17;1.97;;;;;;;19.66;48.26;95724.56;5052193;28;20275;-25
2024/03/26 02:37:46;;;;;;;1.67;1.57;;;;;;;19.67;48.28;95727.97;5053929;28;20766;-25
2024/03/26 02:40:12;;;;;;;1.80;1.70;;;;;;;19.67;48.19;95725.41;5047196;28;20204;-28
2024/03/26 02:42:37;;;;;;;1.60;1.50;;;;;;;19.66;48.25;95722.00;5050816;28;20228;-25
2024/03/26 02:45:03;;;;;;;1.70;1.60;;;;;;;19.61;48.22;95708.41;5009520;28;20204;-27
2024/03/26 02:47:29;;;;;;;1.83;1.60;;;;;;;19.66;48.11;95718.63;5060866;28;20219;-25
2024/03/26 02:49:55;;;;;;;1.60;1.50;;;;;;;19.66;48.22;95711.81;5056610;28;20283;-31
2024/03/26 02:52:20;;;;;;;1.63;1.53;;;;;;;19.67;47.93;95705.03;5039903;28;20196;-26
2024/03/26 02:54:46;;;;;;;1.70;1.60;;;;;;;19.67;48.11;95700.78;5044429;28;20284;-25
2024/03/26 02:57:11;;;;;;;1.87;1.73;;;;;;;19.67;48.12;95703.34;5050152;28;20224;-25
2024/03/26 02:59:37;;;;;;;1.73;1.53;;;;;;;19.66;48.19;95696.53;5053673;28;20200;-26
2024/03/26 03:02:02;;;;;;;1.70;1.60;;;;;;;19.67;48.18;95690.59;5028268;28;20217;-25
2024/03/26 03:04:28;;;;;;;1.60;1.50;;;;;;;19.67;48.09;95680.41;5052351;28;20200;-26
2024/03/26 03:06:54;;;;;;;1.80;1.70;;;;;;;19.65;48.12;95677.00;5044488;28;20679;-25
2024/03/26 03:09:19;;;;;;;1.70;1.60;;;;;;;19.65;48.14;95673.56;5054024;28;20210;-26
2024/03/26 03:11:45;;;;;;;1.50;1.40;;;;;;;19.63;48.14;95671.03;5048745;28;20583;-32
2024/03/26 03:14:11;;;;;;;1.77;1.57;;;;;;;19.65;48.35;95666.78;5053885;28;20204;-25
2024/03/26 03:16:36;;;;;;;1.60;1.50;;;;;;;19.63;48.32;95658.28;5059063;28;20582;-25
2024/03/26 03:19:02;;;;;;;1.50;1.40;;;;;;;19.64;48.08;95664.25;5054978;28;20279;-27
2024/03/26 03:21:27;;;;;;;1.60;1.50;;;;;;;19.59;47.84;95654.00;5042225;28;20639;-26
2024/03/26 03:23:53;;;;;;;1.63;1.53;;;;;;;19.65;48.19;95664.25;5045260;28;20224;-25
2024/03/26 03:26:19;;;;;;;1.60;1.50;;;;;;;19.63;48.50;95658.28;5053423;28;20295;-25
2024/03/26 03:28:44;;;;;;;1.80;1.70;;;;;;;19.65;48.10;95655.75;5043558;28;20227;-25
2024/03/26 03:31:10;;;;;;;1.93;1.73;;;;;;;19.65;48.28;95658.28;5047528;28;20291;-26
2024/03/26 03:33:35;;;;;;;1.83;1.60;;;;;;;19.65;48.07;95646.41;5051581;28;20686;-25
2024/03/26 03:36:01;;;;;;;1.63;1.50;;;;;;;19.65;48.16;95645.53;5047302;28;20276;-25
2024/03/26 03:38:26;;;;;;;1.60;1.50;;;;;;;19.62;48.32;95638.75;5051633;28;20322;-25
2024/03/26 03:40:52;;;;;;;1.70;1.60;;;;;;;19.61;48.11;95626.84;5060893;28;20207;-25
2024/03/26 03:43:18;;;;;;;1.80;1.70;;;;;;;19.65;48.13;95636.22;5048344;28;20220;-26
2024/03/26 03:45:43;;;;;;;1.63;1.53;;;;;;;19.65;48.33;95631.13;5048144;28;20209;-25
2024/03/26 03:48:09;;;;;;;1.90;1.70;;;;;;;19.65;48.26;95625.16;5049685;28;20682;-25
2024/03/26 03:50:35;;;;;;;1.87;1.70;;;;;;;19.65;48.17;95618.38;5047650;28;20213;-27
2024/03/26 03:53:00;;;;;;;2.07;1.87;;;;;;;19.67;48.30;95621.81;5051203;28;20204;-25
2024/03/26 03:55:26;;;;;;;1.50;1.40;;;;;;;19.66;48.27;95616.69;5046724;28;20652;-25
2024/03/26 03:57:52;;;;;;;1.53;1.43;;;;;;;19.60;48.16;95602.19;5061823;28;20276;-26
2024/03/26 04:00:18;;;;;;;1.53;1.40;;;;;;;19.64;48.11;95613.28;5056777;28;20279;-25
2024/03/26 04:02:43;;;;;;;1.70;1.60;;;;;;;19.63;48.32;95606.50;5055400;28;20289;-25
2024/03/26 04:05:09;;;;;;;1.70;1.60;;;;;;;19.63;48.21;95609.88;5051398;28;20302;-29
2024/03/26 04:07:34;;;;;;;1.50;1.40;;;;;;;19.64;48.71;95605.63;5050192;28;20236;-26
2024/03/26 04:10:00;;;;;;;1.50;1.40;;;;;;;19.63;48.15;95611.59;5063311;28;20207;-25
2024/03/26 04:12:27;;;;;;;1.70;1.60;;;;;;;19.65;48.14;95613.28;5050466;28;20197;-25
2024/03/26 04:14:52;;;;;;;1.40;1.30;;;;;;;19.64;48.04;95613.28;5054159;28;20215;-25
2024/03/26 04:17:18;;;;;;;1.80;1.70;;;;;;;19.63;48.11;95607.31;5071662;28;20224;-26
2024/03/26 04:19:44;;;;;;;1.50;1.40;;;;;;;19.65;48.04;95612.41;5054758;28;20287;-27
2024/03/26 04:22:09;;;;;;;1.97;1.70;;;;;;;19.63;48.13;95609.88;5054041;28;20216;-25
2024/03/26 04:24:35;;;;;;;1.57;1.47;;;;;;;19.64;47.92;95613.28;5054895;28;20204;-25
2024/03/26 04:27:01;;;;;;;1.50;1.40;;;;;;;19.58;48.24;95591.16;5048072;28;20619;-25
2024/03/26 04:29:27;;;;;;;1.60;1.50;;;;;;;19.60;48.14;95594.56;5047842;28;20197;-25
2024/03/26 04:31:53;;;;;;;1.60;1.50;;;;;;;19.61;48.28;95590.31;5050186;28;20214;-25
2024/03/26 04:34:19;;;;;;;1.90;1.60;;;;;;;19.64;48.13;95595.44;5052042;28;20200;-26
2024/03/26 04:36:45;;;;;;;1.63;1.53;;;;;;;19.65;48.14;95602.22;5044386;28;20591;-25
2024/03/26 04:39:11;;;;;;;1.60;1.50;;;;;;;19.63;48.30;95606.50;5046967;28;20208;-25
2024/03/26 04:41:37;;;;;;;1.73;1.53;;;;;;;19.65;48.10;95599.69;5052460;28;20196;-27
2024/03/26 04:44:03;;;;;;;1.63;1.53;;;;;;;19.65;48.10;95612.41;5054960;28;20260;-26
2024/03/26 04:46:29;;;;;;;1.90;1.80;;;;;;;19.64;48.28;95609.03;5044753;28;20211;-25
2024/03/26 04:48:55;;;;;;;1.70;1.60;;;;;;;19.64;48.30;95621.78;5052693;28;20240;-25
2024/03/26 04:51:21;;;;;;;1.70;1.60;;;;;;;19.58;48.34;95615.78;5057764;28;20716;-26
2024/03/26 04:53:47;;;;;;;1.63;1.37;;;;;;;19.63;48.20;95621.78;5051893;28;20209;-25
2024/03/26 04:56:14;;;;;;;1.63;1.53;;;;;;;19.61;48.26;95619.22;5056687;28;20253;-28
2024/03/26 04:58:40;;;;;;;1.37;1.27;;;;;;;19.55;48.40;95606.44;5060696;28;20224;-26
2024/03/26 05:01:05;;;;;;;1.70;1.60;;;;;;;19.63;48.23;95624.31;5054159;28;20204;-25
2024/03/26 05:03:31;;;;;;;1.57;1.47;;;;;;;19.64;48.16;95624.34;5057153;28;20819;-25
2024/03/26 05:05:57;;;;;;;1.70;1.60;;;;;;;19.64;48.14;95619.22;5052195;28;20212;-25
2024/03/26 05:08:22;;;;;;;1.80;1.70;;;;;;;19.64;48.16;95616.69;5050811;28;20303;-25
2024/03/26 05:10:48;;;;;;;1.43;1.33;;;;;;;19.64;48.28;95618.38;5046355;28;20204;-25
2024/03/26 05:13:14;;;;;;;1.50;1.40;;;;;;;19.65;48.10;95622.63;5044264;28;20659;-27
2024/03/26 05:15:40;;;;;;;1.53;1.43;;;;;;;19.64;47.80;95610.72;5042607;28;20212;-30
2024/03/26 05:18:06;;;;;;;1.50;1.40;;;;;;;19.64;48.37;95608.19;5038874;28;20224;-25
2024/03/26 05:20:32;;;;;;;1.60;1.50;;;;;;;19.65;48.31;95597.13;5048727;28;20552;-25
2024/03/26 05:22:57;;;;;;;1.53;1.43;;;;;;;19.64;48.20;95592.91;5053691;28;20605;-25
2024/03/26 05:25:23;;;;;;;1.47;1.37;;;;;;;19.64;48.31;95595.44;5043796;28;20287;-26
2024/03/26 05:27:48;;;;;;;1.67;1.57;;;;;;;19.64;48.18;95585.25;5053446;28;20674;-27
2024/03/26 05:30:14;;;;;;;1.63;1.53;;;;;;;19.63;48.27;95586.09;5044086;28;20208;-25
2024/03/26 05:32:40;;;;;;;1.60;1.50;;;;;;;19.60;48.58;95592.00;5044211;28;20204;-25
2024/03/26 05:35:05;;;;;;;1.50;1.40;;;;;;;19.64;48.38;95598.84;5027990;28;20227;-26
2024/03/26 05:37:31;;;;;;;1.20;1.20;;;;;;;19.64;48.24;95608.19;5047096;28;20239;-26
2024/03/26 05:39:57;;;;;;;1.60;1.50;;;;;;;19.64;48.23;95608.19;5050349;28;20196;-25
2024/03/26 05:42:23;;;;;;;1.60;1.50;;;;;;;19.63;48.40;95607.31;5052060;28;20249;-25
2024/03/26 05:44:48;;;;;;;1.60;1.50;;;;;;;19.63;48.59;95609.03;5054371;28;20632;-25
2024/03/26 05:47:14;;;;;;;1.50;1.40;;;;;;;19.64;48.40;95608.19;5046779;28;20277;-26
2024/03/26 05:49:39;;;;;;;1.70;1.60;;;;;;;19.64;48.23;95605.63;5050885;28;20201;-26
2024/03/26 05:52:05;;;;;;;1.50;1.40;;;;;;;19.65;48.04;95607.31;5050562;28;20568;-27
2024/03/26 05:54:30;;;;;;;1.40;1.30;;;;;;;19.66;48.18;95603.97;5045007;28;20200;-25
2024/03/26 05:56:56;;;;;;;1.63;1.50;;;;;;;19.66;48.25;95601.41;5050368;28;20307;-26
2024/03/26 05:59:22;;;;;;;1.60;1.50;;;;;;;19.66;48.38;95616.69;5049221;28;20659;-27
2024/03/26 06:01:48;;;;;;;1.77;1.67;;;;;;;19.66;48.16;95614.16;5053375;28;20691;-27
2024/03/26 06:04:14;;;;;;;1.33;1.23;;;;;;;19.65;48.22;95605.63;5050744;28;20228;-25
2024/03/26 06:06:39;;;;;;;1.70;1.60;;;;;;;19.66;48.38;95601.41;5048282;28;20205;-25
2024/03/26 06:09:05;;;;;;;1.43;1.33;;;;;;;19.66;48.17;95609.88;5053186;28;20736;-25
2024/03/26 06:11:30;;;;;;;1.60;1.50;;;;;;;19.69;48.22;95609.06;5053530;28;20202;-26
2024/03/26 06:13:56;;;;;;;1.50;1.40;;;;;;;19.64;48.31;95592.91;5053054;28;20212;-25
2024/03/26 06:16:21;;;;;;;1.60;1.50;;;;;;;19.70;48.22;95598.03;5069633;28;20196;-25
2024/03/26 06:18:47;;;;;;;1.43;1.33;;;;;;;19.72;48.26;95614.19;5046571;28;20225;-25
2024/03/26 06:21:13;;;;;;;1.40;1.30;;;;;;;19.72;48.29;95609.09;5052398;28;20204;-27
2024/03/26 06:23:38;;;;;;;1.50;1.40;;;;;;;19.70;48.15;95608.22;5054071;28;20704;-26
2024/03/26 06:26:04;;;;;;;1.60;1.50;;;;;;;19.70;48.16;95596.34;5046272;28;20204;-25
2024/03/26 06:28:29;;;;;;;1.47;1.37;;;;;;;19.63;48.45;95594.56;5041753;28;20307;-25
2024/03/26 06:30:55;;;;;;;1.80;1.50;;;;;;;19.69;48.29;95607.34;5046091;28;20200;-27
2024/03/26 06:33:21;;;;;;;1.47;1.37;;;;;;;19.66;48.37;95601.41;5051206;28;20203;-25
2024/03/26 06:35:46;;;;;;;1.63;1.53;;;;;;;19.69;48.43;95607.34;5053248;28;20200;-25
2024/03/26 06:38:12;;;;;;;1.53;1.43;;;;;;;19.66;48.24;95592.03;5050230;28;20232;-25
2024/03/26 06:40:38;;;;;;;1.40;1.30;;;;;;;19.68;48.10;95590.38;5054126;28;20219;-25
2024/03/26 06:43:04;;;;;;;1.53;1.43;;;;;;;19.68;48.12;95597.16;5024887;28;20235;-26
2024/03/26 06:45:30;;;;;;;1.40;1.30;;;;;;;19.44;47.41;95551.16;5044087;28;20638;-25
2024/03/26 06:47:56;;;;;;;2.30;2.10;;;;;;;19.70;44.26;95595.47;5055623;28;20236;-25
2024/03/26 06:50:21;;;;;;;2.37;2.17;;;;;;;19.71;42.71;95603.13;5051786;28;20273;-27
2024/03/26 06:52:47;;;;;;;2.67;2.47;;;;;;;19.72;43.88;95599.72;5053284;28;20204;-25
2024/03/26 06:55:22;;;;;;;2.60;2.13;;;;;;;19.69;44.91;95596.34;5046097;28;20662;-25
2024/03/26 06:57:47;;;;;;;4.20;2.27;;;;;;;19.71;45.72;95597.16;5051947;28;20220;-25
2024/03/26 07:00:14;;;;;;;2.30;2.10;;;;;;;19.69;46.25;95597.16;5057093;28;20215;-25
2024/03/26 07:02:40;;;;;;;2.60;2.40;;;;;;;19.66;46.73;95589.50;5069492;28;20227;-25
2024/03/26 07:05:06;;;;;;;1.83;1.70;;;;;;;19.69;47.10;95591.25;5057653;28;20575;-25
2024/03/26 07:07:33;;;;;;;2.77;1.87;;;;;;;19.70;47.17;95590.38;5043630;28;20224;-25
2024/03/26 07:09:58;;;;;;;1.97;1.70;;;;;;;19.69;47.57;95586.97;5054982;28;20207;-25
2024/03/26 07:12:25;;;;;;;1.70;1.60;;;;;;;19.68;47.31;95577.63;5056135;28;20213;-27
2024/03/26 07:14:50;;;;;;;1.80;1.70;;;;;;;19.70;47.39;95582.72;5054612;28;20211;-25
2024/03/26 07:17:16;;;;;;;2.00;1.73;;;;;;;19.67;47.40;95575.94;5045026;28;20602;-25
2024/03/26 07:19:42;;;;;;;1.70;1.60;;;;;;;19.67;47.54;95575.94;5046976;28;20223;-25
2024/03/26 07:22:07;;;;;;;1.73;1.63;;;;;;;19.68;47.46;95566.56;5052966;28;20206;-27
2024/03/26 07:24:33;;;;;;;2.10;1.90;;;;;;;19.68;47.46;95574.22;5062523;28;20242;-25
2024/03/26 07:26:58;;;;;;;1.70;1.60;;;;;;;19.66;47.67;95576.75;5050860;28;20227;-25
2024/03/26 07:29:24;;;;;;;2.83;2.00;;;;;;;19.68;47.54;95569.13;5048347;28;20252;-25
2024/03/26 07:31:50;;;;;;;1.83;1.73;;;;;;;19.67;47.47;95568.28;5050365;28;20197;-25
2024/03/26 07:34:16;;;;;;;2.17;1.93;;;;;;;19.69;47.84;95570.84;5058571;28;20207;-26
2024/03/26 07:36:41;;;;;;;3.53;1.90;;;;;;;19.68;47.75;95571.66;5063537;28;20207;-25
2024/03/26 07:39:09;;;;;;;2.43;1.80;;;;;;;19.66;47.70;95560.63;5058900;28;20222;-25
2024/03/26 07:41:35;;;;;;;1.93;1.83;;;;;;;19.67;47.73;95560.66;5064733;28;20643;-25
2024/03/26 07:44:01;;;;;;;1.70;1.60;;;;;;;19.69;47.54;95560.66;5054598;28;20685;-26
2024/03/26 07:46:27;;;;;;;1.80;1.70;;;;;;;19.66;47.90;95551.28;5048041;28;20204;-25
2024/03/26 07:48:52;;;;;;;2.40;1.90;;;;;;;19.66;47.64;95546.19;5053989;28;20614;-26
2024/03/26 07:51:18;;;;;;;1.87;1.77;;;;;;;19.66;47.75;95543.63;5050023;28;20203;-25
2024/03/26 07:53:44;;;;;;;1.80;1.70;;;;;;;19.49;47.77;95511.28;5064812;28;20208;-25
2024/03/26 07:56:10;;;;;;;1.83;1.60;;;;;;;19.68;47.72;95541.09;5052440;28;20196;-25
2024/03/26 07:58:35;;;;;;;2.03;1.90;;;;;;;19.70;48.04;95541.97;5056983;28;20239;-25
2024/03/26 08:01:01;;;;;;;2.20;2.00;;;;;;;19.72;47.92;95545.38;5055938;28;20286;-28
2024/03/26 08:03:26;;;;;;;1.80;1.70;;;;;;;19.70;47.78;95535.19;5059280;28;20224;-25
2024/03/26 08:05:52;;;;;;;1.60;1.50;;;;;;;19.70;47.91;95530.09;5052893;28;20207;-25
2024/03/26 08:08:18;;;;;;;1.70;1.60;;;;;;;19.68;47.96;95524.13;5049080;28;20816;-25
2024/03/26 08:10:43;;;;;;;3.03;1.80;;;;;;;19.66;44.52;95515.59;5039384;28;20216;-28
2024/03/26 08:13:09;;;;;;;2.87;2.13;;;;;;;19.65;42.84;95507.97;5055079;28;20410;-25
2024/03/26 08:15:36;;;;;;;5.53;2.47;;;;;;;19.64;41.83;95506.25;5050695;28;20213;-25
2024/03/26 08:18:02;;;;;;;2.80;2.17;;;;;;;19.64;39.70;95513.91;5045508;28;20702;-27
2024/03/26 08:20:30;;;;;;;3.30;2.87;;;;;;;19.60;39.74;95492.66;5060749;28;20211;-25
2024/03/26 08:22:56;;;;;;;3.40;2.57;;;;;;;19.66;39.51;95505.41;5060146;28;20214;-26
2024/03/26 08:25:22;;;;;;;3.47;2.20;;;;;;;19.64;40.45;95496.94;5052379;28;20204;-25
2024/03/26 08:27:48;;;;;;;2.97;2.37;;;;;;;19.64;41.37;95496.06;5054735;28;20717;-26
2024/03/26 08:30:13;;;;;;;4.80;2.50;;;;;;;19.64;42.14;95501.16;5055001;28;20283;-25
2024/03/26 08:32:39;;;;;;;2.67;2.20;;;;;;;19.63;42.88;95504.56;5055358;28;20683;-25
2024/03/26 08:35:08;;;;;;;4.43;2.50;;;;;;;19.63;43.43;95496.94;5049194;28;20203;-28
2024/03/26 08:37:35;;;;;;;3.33;2.10;;;;;;;19.43;43.86;95462.84;5045124;28;20220;-25
2024/03/26 08:40:04;;;;;;;2.80;2.00;;;;;;;19.62;44.48;95488.41;5055596;28;20223;-27
2024/03/26 08:42:29;;;;;;;2.67;2.00;;;;;;;19.62;44.79;95488.41;5044012;28;20236;-27
2024/03/26 08:44:55;;;;;;;2.87;1.97;;;;;;;19.54;45.05;95479.06;5046857;28;20208;-25
2024/03/26 08:47:21;;;;;;;2.63;2.30;;;;;;;19.60;45.20;95487.56;5055030;28;20223;-27
2024/03/26 08:49:48;;;;;;;2.93;2.30;;;;;;;19.62;45.51;95492.66;5046828;28;20231;-25
2024/03/26 08:52:13;;;;;;;2.43;2.23;;;;;;;19.63;45.47;95487.56;5055313;28;20200;-25
2024/03/26 08:54:39;;;;;;;3.37;2.07;;;;;;;19.60;45.60;95481.63;5054974;28;20686;-25
2024/03/26 08:57:04;;;;;;;2.63;1.80;;;;;;;19.62;45.84;95477.38;5042346;28;20445;-25
2024/03/26 08:59:30;;;;;;;2.23;1.97;;;;;;;19.60;45.72;95479.91;5054781;28;20254;-25
2024/03/26 09:01:56;;;;;;;2.20;1.90;;;;;;;19.61;45.77;95475.69;5046877;28;20265;-26
2024/03/26 09:04:21;;;;;;;1.93;1.83;;;;;;;19.60;45.87;95468.88;5030397;28;20682;-25
2024/03/26 09:06:47;;;;;;;2.80;2.07;;;;;;;19.63;45.95;95469.72;5055019;28;20207;-25
2024/03/26 09:09:13;;;;;;;2.00;1.80;;;;;;;19.59;46.15;95454.41;5042662;28;20298;-25
2024/03/26 09:11:38;;;;;;;2.37;2.07;;;;;;;19.64;45.99;95471.44;5054649;28;20746;-25
2024/03/26 09:14:04;;;;;;;2.93;1.97;;;;;;;19.62;46.03;95473.13;5080159;28;20234;-26
2024/03/26 09:16:30;;;;;;;1.97;1.80;;;;;;;19.61;46.41;95470.56;5043214;28;20205;-25
2024/03/26 09:18:55;;;;;;;1.87;1.77;;;;;;;19.63;46.37;95467.19;5037027;28;20303;-25
2024/03/26 09:21:21;;;;;;;2.00;1.90;;;;;;;19.63;46.35;95468.91;5042372;28;20239;-25
2024/03/26 09:23:47;;;;;;;2.00;1.80;;;;;;;19.61;46.27;95476.53;5050924;28;20348;-25
2024/03/26 09:26:12;;;;;;;2.10;1.90;;;;;;;19.63;46.40;95474.81;5048880;28;20561;-26
2024/03/26 09:28:38;;;;;;;2.00;1.80;;;;;;;19.63;46.38;95469.72;5051875;28;20749;-25
2024/03/26 09:31:04;;;;;;;2.10;1.90;;;;;;;19.62;46.42;95467.19;5050783;28;20749;-25
2024/03/26 09:33:29;;;;;;;2.10;1.90;;;;;;;19.65;46.53;95477.38;5047846;28;20241;-25
2024/03/26 09:35:55;;;;;;;1.80;1.70;;;;;;;19.65;46.52;95469.72;5047287;28;20286;-30
2024/03/26 09:38:20;;;;;;;2.00;1.83;;;;;;;19.62;46.63;95457.84;5041860;28;20224;-25
2024/03/26 09:40:53;;;;;;;2.03;1.70;;;;;;;19.64;46.57;95456.16;5053163;28;20204;-25
2024/03/26 09:43:19;;;;;;;1.83;1.73;;;;;;;19.64;46.67;95453.63;5014866;28;20225;-25
2024/03/26 09:45:44;;;;;;;1.93;1.70;;;;;;;19.64;46.71;95447.66;5011841;28;20632;-25
2024/03/26 09:48:10;;;;;;;1.70;1.60;;;;;;;19.62;46.71;95454.44;5043023;28;20316;-25
2024/03/26 09:50:36;;;;;;;2.00;1.80;;;;;;;19.64;46.85;95453.63;5045533;28;20719;-25
2024/03/26 09:53:02;;;;;;;1.93;1.80;;;;;;;19.65;46.73;95452.75;5042584;28;20239;-25
2024/03/26 09:55:28;;;;;;;1.77;1.63;;;;;;;19.65;46.80;95457.00;5047719;28;20196;-25
2024/03/26 09:57:54;;;;;;;1.93;1.77;;;;;;;19.65;46.69;95452.75;5054211;28;20234;-26
2024/03/26 10:00:20;;;;;;;1.73;1.63;;;;;;;19.65;46.77;95449.34;5037473;28;20196;-35
2024/03/26 10:02:46;;;;;;;1.70;1.60;;;;;;;19.66;46.68;95454.44;5044687;28;20224;-26
2024/03/26 10:05:16;;;;;;;2.00;1.80;;;;;;;19.67;46.63;95452.75;5039468;28;20598;-25
2024/03/26 10:07:45;;;;;;;1.83;1.70;;;;;;;19.63;46.64;95445.97;5042385;28;20585;-25
2024/03/26 10:10:10;;;;;;;1.70;1.60;;;;;;;19.67;46.72;95458.72;5047007;28;20678;-25
2024/03/26 10:12:40;;;;;;;2.63;1.90;;;;;;;19.69;46.74;95456.19;5061703;28;20286;-27
2024/03/26 10:15:06;;;;;;;1.83;1.67;;;;;;;19.68;46.78;95445.13;5037094;28;20208;-25
2024/03/26 10:17:33;;;;;;;1.90;1.70;;;;;;;19.69;46.73;95435.78;5042451;28;20224;-25
2024/03/26 10:19:58;;;;;;;3.43;1.90;;;;;;;19.71;46.73;95439.19;5050442;28;20273;-25
2024/03/26 10:22:24;;;;;;;1.60;1.50;;;;;;;19.69;46.47;95435.78;5038200;28;20622;-25
2024/03/26 10:24:50;;;;;;;2.20;1.80;;;;;;;19.72;46.86;95438.34;5032583;28;20279;-25
2024/03/26 10:27:15;;;;;;;1.73;1.63;;;;;;;19.72;47.11;95439.19;5037933;28;20224;-25
2024/03/26 10:29:41;;;;;;;2.20;2.00;;;;;;;19.70;47.02;95433.25;5041071;28;20565;-25
2024/03/26 10:32:07;;;;;;;1.87;1.67;;;;;;;19.69;47.04;95430.69;5040829;28;20200;-25
2024/03/26 10:34:32;;;;;;;1.67;1.57;;;;;;;19.69;47.12;95428.97;5037096;28;20789;-25
2024/03/26 10:36:58;;;;;;;1.87;1.50;;;;;;;19.69;46.66;95430.69;5028722;28;20227;-25
2024/03/26 10:39:24;;;;;;;1.90;1.70;;;;;;;19.69;47.30;95413.69;5020653;28;20307;-25
2024/03/26 10:41:50;;;;;;;1.70;1.60;;;;;;;19.51;47.37;95382.25;5030181;28;20200;-26
2024/03/26 10:44:15;;;;;;;1.87;1.70;;;;;;;19.67;47.24;95419.66;5028229;28;20299;-25
2024/03/26 10:46:41;;;;;;;2.90;1.80;;;;;;;19.60;47.28;95397.56;5018748;28;20825;-25
2024/03/26 10:49:06;;;;;;;1.50;1.40;;;;;;;19.67;47.56;95399.25;5033371;28;20205;-25
2024/03/26 10:51:32;;;;;;;1.90;1.80;;;;;;;19.69;47.40;95397.56;5022999;28;20267;-25
2024/03/26 10:54:01;;;;;;;1.60;1.50;;;;;;;19.69;47.37;95397.56;5041974;28;20196;-26
2024/03/26 10:56:26;;;;;;;1.80;1.70;;;;;;;19.70;47.48;95389.06;5045190;28;20270;-25
2024/03/26 10:58:56;;;;;;;1.80;1.70;;;;;;;19.67;47.29;95384.84;5026525;28;20224;-25
2024/03/26 11:01:23;;;;;;;1.53;1.43;;;;;;;19.69;47.57;95378.03;5018624;28;20565;-25
2024/03/26 11:03:48;;;;;;;1.80;1.70;;;;;;;19.69;47.16;95377.19;5027981;28;20245;-26
2024/03/26 11:06:14;;;;;;;2.00;1.67;;;;;;;19.70;47.57;95371.25;5029375;28;20204;-25
2024/03/26 11:08:40;;;;;;;1.83;1.73;;;;;;;19.69;47.50;95365.28;5055540;28;20606;-25
2024/03/26 11:11:08;;;;;;;1.50;1.40;;;;;;;19.70;47.49;95361.03;5042381;28;20233;-25
2024/03/26 11:13:35;;;;;;;2.37;1.80;;;;;;;19.70;47.54;95353.41;5053071;28;20204;-25
2024/03/26 11:16:11;;;;;;;2.27;1.80;;;;;;;19.62;47.42;95339.78;5063657;28;20204;-26
2024/03/26 11:18:38;;;;;;;1.67;1.53;;;;;;;19.66;47.58;95331.31;5053747;28;20279;-25
2024/03/26 11:21:04;;;;;;;1.83;1.73;;;;;;;19.70;47.46;95341.53;5044760;28;20208;-25
2024/03/26 11:23:37;;;;;;;1.47;1.37;;;;;;;19.69;47.54;95336.44;5047236;28;20243;-25
2024/03/26 11:26:03;;;;;;;1.80;1.70;;;;;;;19.69;47.54;95324.50;5046686;28;20242;-26
2024/03/26 11:28:32;;;;;;;1.80;1.50;;;;;;;19.69;47.46;95327.06;5028365;28;20220;-25
2024/03/26 11:30:58;;;;;;;1.67;1.57;;;;;;;19.66;47.68;95324.50;5061643;28;20587;-25